Spencer, Iowa
Current Conditions -  °F | °C
As of 7:53 AM on Monday 22 Dec 2014 (Local Time) from KSPW Reporting Station
Light Rain Light Rain  
Wind Chill: 31°   Ceiling: 400
Heat Index: 40°   Visibility: 6mi
Dew Point: 37°   Wind: 17mph
Humidity: 89%   Direction: 150°SSE
Pressure: 29.54"   Gusts: NA
Location:  43.14°N, 95.14°W
Report Text: KSPW 221353Z AUTO 15015KT 6SM -RA BR OVC004 04/03 A2954 RMK AO2 SLP013 P0002 T00440028 TSNO
Loading
Personal Weather Stations






























Interactive Weather Map New forecast layout! Learn more

10-Day Weather Forecast

Advertisements
Track Severe Weather on mobile